Time;durP1;ratioP1;P1;durP2;ratioP2;P2;SDS_P1;SDS_P2;PMS_P1;PMS_P2;Temp;Humidity;BMP_temperature;BMP_pressure;BME280_temperature;BME280_humidity;BME280_pressure;Samples;Min_cycle;Max_cycle;Signal;HPM_P1;HPM_P2
2023/06/12 00:00:54;;;;;;;8.48;5.03;;;20.10;77.10;;;;;;4907842;29;20138;-80
2023/06/12 00:03:21;;;;;;;6.95;5.63;;;20.10;77.30;;;;;;4932643;29;20350;-79
2023/06/12 00:05:47;;;;;;;8.35;5.60;;;20.00;77.10;;;;;;4937065;29;20055;-80
2023/06/12 00:08:13;;;;;;;10.02;5.60;;;20.00;77.50;;;;;;4911355;29;20048;-80
2023/06/12 00:10:40;;;;;;;9.23;5.60;;;19.90;77.90;;;;;;4923442;29;20048;-79
2023/06/12 00:13:08;;;;;;;9.65;5.53;;;19.90;78.00;;;;;;4915345;29;20104;-79
2023/06/12 00:15:34;;;;;;;7.90;4.90;;;19.90;77.80;;;;;;4917974;29;20040;-80
2023/06/12 00:18:01;;;;;;;7.95;5.90;;;19.90;77.90;;;;;;4939861;29;20276;-80
2023/06/12 00:20:27;;;;;;;8.15;5.88;;;19.90;77.90;;;;;;4932170;29;20127;-80
2023/06/12 00:22:53;;;;;;;8.73;5.63;;;19.90;77.90;;;;;;4930539;29;20561;-80
2023/06/12 00:25:20;;;;;;;8.30;5.82;;;19.90;78.00;;;;;;4918861;29;20049;-79
2023/06/12 00:27:46;;;;;;;8.43;5.65;;;19.90;78.50;;;;;;4921728;29;20087;-79
2023/06/12 00:30:12;;;;;;;8.93;6.03;;;19.80;79.00;;;;;;4921549;29;20048;-80
2023/06/12 00:32:38;;;;;;;10.80;6.47;;;19.70;79.40;;;;;;4906735;29;20115;-80
2023/06/12 00:35:04;;;;;;;7.75;6.22;;;19.70;80.00;;;;;;4917810;29;20048;-79
2023/06/12 00:37:31;;;;;;;9.25;5.95;;;19.60;80.50;;;;;;4918982;29;20144;-80
2023/06/12 00:39:56;;;;;;;8.23;6.07;;;19.60;80.70;;;;;;4934234;29;20041;-80
2023/06/12 00:42:22;;;;;;;8.85;6.07;;;19.60;81.20;;;;;;4918400;29;20043;-79
2023/06/12 00:44:48;;;;;;;8.73;6.68;;;19.60;81.40;;;;;;4908556;29;20045;-80
2023/06/12 00:47:14;;;;;;;8.57;6.68;;;19.60;81.50;;;;;;4932003;29;20493;-80
2023/06/12 00:49:41;;;;;;;9.00;6.68;;;19.60;81.80;;;;;;4910763;29;20477;-80
2023/06/12 00:52:11;;;;;;;9.25;5.90;;;19.60;82.20;;;;;;4918628;29;20048;-80
2023/06/12 00:54:38;;;;;;;8.32;6.75;;;19.60;82.40;;;;;;4915843;29;20051;-80
2023/06/12 00:57:07;;;;;;;11.13;6.63;;;19.60;82.70;;;;;;4940088;29;20072;-80
2023/06/12 00:59:33;;;;;;;10.93;5.90;;;19.50;83.00;;;;;;4919699;29;20078;-80
2023/06/12 01:01:59;;;;;;;8.02;6.53;;;19.50;82.90;;;;;;4914171;29;20083;-80
2023/06/12 01:04:26;;;;;;;8.85;6.75;;;19.50;83.60;;;;;;4906011;29;20340;-80
2023/06/12 01:07:20;;;;;;;11.35;7.97;;;19.50;83.60;;;;;;4919274;29;20096;-80
2023/06/12 01:09:54;;;;;;;8.48;7.00;;;19.50;83.90;;;;;;4914637;29;20040;-80
2023/06/12 01:12:20;;;;;;;10.40;7.25;;;19.40;84.20;;;;;;4908332;29;20063;-79
2023/06/12 01:14:47;;;;;;;9.00;6.70;;;19.40;84.90;;;;;;4934814;29;20036;-79
2023/06/12 01:17:13;;;;;;;11.05;7.30;;;19.30;85.00;;;;;;4931428;29;20095;-79
2023/06/12 01:19:41;;;;;;;8.30;7.40;;;19.30;85.20;;;;;;4911429;29;20139;-79
2023/06/12 01:22:08;;;;;;;;;;;19.30;85.60;;;;;;4915734;29;20098;-79
2023/06/12 01:24:54;;;;;;;11.60;7.07;;;19.30;85.90;;;;;;4936571;29;19977;-79
2023/06/12 01:27:39;;;;;;;11.68;7.30;;;19.30;86.30;;;;;;4935338;29;20040;-79
2023/06/12 01:30:54;;;;;;;11.32;7.55;;;19.20;86.80;;;;;;4915045;29;20103;-79
2023/06/12 01:33:21;;;;;;;10.77;7.38;;;19.10;86.90;;;;;;4907347;29;20053;-79
2023/06/12 01:35:47;;;;;;;11.50;7.35;;;19.10;87.20;;;;;;4939335;29;20446;-79
2023/06/12 01:38:20;;;;;;;8.98;6.93;;;19.10;87.60;;;;;;4918769;29;20469;-79
2023/06/12 01:40:47;;;;;;;9.52;7.00;;;19.00;87.70;;;;;;4912072;29;20044;-79
2023/06/12 01:43:13;;;;;;;11.73;7.47;;;19.00;88.10;;;;;;4911423;29;20107;-79
2023/06/12 01:45:39;;;;;;;12.98;7.53;;;19.00;88.40;;;;;;4926183;29;20465;-79
2023/06/12 01:48:05;;;;;;;12.20;7.60;;;19.00;88.60;;;;;;4928546;29;20044;-79
2023/06/12 01:50:31;;;;;;;15.68;7.80;;;19.00;88.60;;;;;;4889183;29;20055;-79
2023/06/12 01:52:57;;;;;;;9.38;7.78;;;19.00;88.80;;;;;;4919564;29;20047;-79
2023/06/12 01:55:24;;;;;;;12.35;8.18;;;18.90;89.10;;;;;;4930287;29;20064;-79
2023/06/12 01:57:50;;;;;;;10.63;6.78;;;18.90;89.40;;;;;;4927921;29;20132;-79
2023/06/12 02:00:17;;;;;;;10.73;7.70;;;18.90;89.80;;;;;;4877431;29;20063;-79
2023/06/12 02:02:44;;;;;;;9.27;7.30;;;18.80;90.50;;;;;;4910478;29;20110;-79
2023/06/12 02:05:10;;;;;;;8.02;7.00;;;18.80;90.40;;;;;;4926577;29;20648;-79
2023/06/12 02:07:36;;;;;;;10.57;7.18;;;18.80;90.60;;;;;;4894951;29;20045;-79
2023/06/12 02:10:02;;;;;;;9.88;7.20;;;18.80;90.90;;;;;;4873513;29;20045;-79
2023/06/12 02:12:30;;;;;;;8.18;7.22;;;18.80;91.00;;;;;;4916388;29;20061;-79
2023/06/12 02:14:57;;;;;;;11.52;7.07;;;18.70;90.90;;;;;;4915401;29;20052;-80
2023/06/12 02:17:23;;;;;;;13.00;7.57;;;18.60;91.00;;;;;;4892624;29;20048;-79
2023/06/12 02:19:49;;;;;;;10.65;7.82;;;18.60;91.00;;;;;;4878496;29;20054;-79
2023/06/12 02:22:15;;;;;;;9.82;6.90;;;18.50;91.10;;;;;;4899974;29;20044;-79
2023/06/12 02:24:40;;;;;;;13.57;6.75;;;18.50;91.20;;;;;;4878136;29;20041;-79
2023/06/12 02:27:06;;;;;;;11.20;7.93;;;18.50;91.10;;;;;;4922237;29;20131;-79
2023/06/12 02:29:32;;;;;;;12.50;7.38;;;18.50;91.20;;;;;;4915817;29;20139;-78
2023/06/12 02:31:58;;;;;;;10.65;7.95;;;18.50;91.30;;;;;;4886579;29;20062;-79
2023/06/12 02:34:23;;;;;;;8.23;7.18;;;18.50;91.50;;;;;;4902625;29;20040;-79
2023/06/12 02:36:50;;;;;;;7.97;6.97;;;18.50;91.50;;;;;;4899565;29;20052;-79
2023/06/12 02:39:15;;;;;;;8.23;6.80;;;18.50;91.80;;;;;;4901541;29;20095;-79
2023/06/12 02:41:45;;;;;;;8.63;7.20;;;18.50;91.80;;;;;;4940307;29;20727;-79
2023/06/12 02:44:11;;;;;;;10.52;7.70;;;18.50;91.60;;;;;;4909332;29;20044;-79
2023/06/12 02:46:53;;;;;;;10.57;7.80;;;18.50;91.80;;;;;;4887705;29;20466;-79
2023/06/12 02:49:19;;;;;;;9.23;7.20;;;18.50;91.80;;;;;;4931078;29;20041;-79
2023/06/12 02:51:45;;;;;;;10.68;7.15;;;18.40;91.70;;;;;;4925952;29;20053;-79
2023/06/12 02:54:12;;;;;;;8.48;6.90;;;18.40;91.70;;;;;;4933075;29;20381;-79
2023/06/12 02:56:41;;;;;;;10.27;7.40;;;18.50;91.80;;;;;;4929946;29;20056;-79
2023/06/12 02:59:08;;;;;;;9.55;7.03;;;18.40;91.60;;;;;;4921073;29;20055;-79
2023/06/12 03:01:35;;;;;;;9.25;6.57;;;18.30;91.70;;;;;;4912738;29;20123;-79
2023/06/12 03:04:01;;;;;;;10.57;7.07;;;18.50;91.70;;;;;;4908104;29;20120;-79
2023/06/12 03:06:28;;;;;;;9.13;7.13;;;18.40;91.80;;;;;;4905920;29;20374;-79
2023/06/12 03:08:55;;;;;;;10.30;7.00;;;18.40;91.70;;;;;;4901629;29;20443;-79
2023/06/12 03:11:22;;;;;;;9.18;7.10;;;18.50;91.60;;;;;;4896022;29;20056;-79
2023/06/12 03:13:47;;;;;;;10.02;7.07;;;18.50;91.80;;;;;;4890957;29;20215;-79
2023/06/12 03:16:14;;;;;;;12.45;6.28;;;18.40;91.90;;;;;;4924670;29;20056;-79
2023/06/12 03:18:41;;;;;;;11.27;6.90;;;18.50;92.00;;;;;;4937191;29;20052;-80
2023/06/12 03:21:07;;;;;;;9.85;7.13;;;18.50;92.10;;;;;;4889640;29;20104;-80
2023/06/12 03:23:33;;;;;;;10.32;7.22;;;18.50;92.20;;;;;;4929900;29;20081;-79
2023/06/12 03:25:58;;;;;;;9.85;7.63;;;18.50;92.10;;;;;;4931332;29;20092;-79
2023/06/12 03:28:24;;;;;;;11.57;7.40;;;18.50;92.10;;;;;;4925500;29;20060;-79
2023/06/12 03:30:50;;;;;;;11.50;6.38;;;18.50;92.20;;;;;;4900407;29;20059;-80
2023/06/12 03:33:16;;;;;;;10.93;6.55;;;18.60;92.10;;;;;;4928082;29;20924;-79
2023/06/12 03:35:41;;;;;;;10.43;7.10;;;18.60;92.10;;;;;;4927925;29;20044;-80
2023/06/12 03:38:07;;;;;;;11.23;7.35;;;18.60;92.20;;;;;;4885034;29;20052;-80
2023/06/12 03:40:33;;;;;;;9.77;6.95;;;18.60;92.10;;;;;;4888835;29;20049;-79
2023/06/12 03:42:59;;;;;;;14.55;7.43;;;18.50;92.20;;;;;;4908635;29;20056;-79
2023/06/12 03:45:25;;;;;;;10.68;7.30;;;18.50;92.40;;;;;;4919310;29;20049;-79
2023/06/12 03:47:50;;;;;;;12.70;7.70;;;18.50;92.20;;;;;;4924611;29;20040;-79
2023/06/12 03:50:16;;;;;;;11.05;7.30;;;18.50;92.20;;;;;;4877587;29;20049;-79
2023/06/12 03:52:42;;;;;;;12.98;7.18;;;18.50;92.20;;;;;;4899847;29;20063;-79
2023/06/12 03:55:08;;;;;;;9.57;6.85;;;18.50;92.10;;;;;;4872057;29;20061;-79
2023/06/12 03:57:34;;;;;;;9.82;6.72;;;18.40;92.30;;;;;;4907597;29;20060;-79
2023/06/12 04:00:00;;;;;;;11.52;7.13;;;18.40;92.60;;;;;;4923043;29;20053;-78
2023/06/12 04:02:26;;;;;;;9.82;7.00;;;18.40;92.80;;;;;;4914467;29;20048;-78
2023/06/12 04:04:52;;;;;;;8.77;7.20;;;18.50;93.20;;;;;;4895070;29;20120;-78
2023/06/12 04:07:18;;;;;;;9.85;6.68;;;18.50;93.40;;;;;;4914555;29;20052;-79
2023/06/12 04:09:44;;;;;;;9.65;7.30;;;18.50;93.60;;;;;;4903643;29;20048;-79
2023/06/12 04:12:10;;;;;;;10.75;7.10;;;18.40;93.80;;;;;;4879537;29;20390;-79
2023/06/12 04:14:36;;;;;;;9.60;6.93;;;18.30;93.90;;;;;;4894896;29;20165;-79
2023/06/12 04:17:03;;;;;;;8.23;7.05;;;18.40;94.30;;;;;;4913597;29;20115;-79
2023/06/12 04:19:28;;;;;;;9.73;7.28;;;18.30;94.60;;;;;;4923246;29;20052;-79
2023/06/12 04:21:57;;;;;;;11.05;7.55;;;18.30;94.60;;;;;;4905540;29;20381;-80
2023/06/12 04:24:30;;;;;;;9.05;6.85;;;18.40;94.50;;;;;;4890262;29;20049;-79
2023/06/12 04:27:01;;;;;;;12.18;7.00;;;18.30;94.40;;;;;;4905698;29;20724;-79
2023/06/12 04:29:28;;;;;;;9.20;7.13;;;18.30;94.20;;;;;;4899909;29;20045;-79
2023/06/12 04:31:56;;;;;;;10.93;7.00;;;18.40;94.50;;;;;;4914370;29;20045;-79
2023/06/12 04:34:21;;;;;;;10.05;6.80;;;18.40;94.50;;;;;;4913910;29;20100;-79
2023/06/12 04:36:47;;;;;;;10.75;7.20;;;18.40;94.70;;;;;;4909777;29;20037;-79
2023/06/12 04:39:13;;;;;;;14.02;6.90;;;18.40;94.80;;;;;;4927550;29;20041;-79
2023/06/12 04:41:40;;;;;;;8.10;6.15;;;18.40;94.70;;;;;;4904877;29;20068;-79
2023/06/12 04:44:06;;;;;;;11.38;7.35;;;18.50;94.80;;;;;;4895033;29;20103;-79
2023/06/12 04:46:32;;;;;;;9.68;6.78;;;18.50;94.50;;;;;;4905377;29;20051;-79
2023/06/12 04:48:59;;;;;;;10.48;6.32;;;18.50;94.00;;;;;;4911442;29;20422;-79
2023/06/12 04:51:25;;;;;;;10.90;7.28;;;18.50;93.80;;;;;;4883171;29;20051;-80
2023/06/12 04:53:53;;;;;;;8.88;6.53;;;18.60;93.90;;;;;;4929676;29;20107;-80
2023/06/12 04:56:22;;;;;;;;;;;18.50;93.70;;;;;;4904894;29;20162;-80
2023/06/12 04:58:48;;;;;;;11.25;6.30;;;18.60;93.60;;;;;;4930917;29;20336;-79
2023/06/12 05:01:14;;;;;;;9.88;6.65;;;18.60;93.50;;;;;;4901486;29;20127;-79
2023/06/12 05:03:41;;;;;;;10.02;6.43;;;18.60;93.70;;;;;;4907783;29;20052;-79
2023/06/12 05:06:09;;;;;;;10.02;6.43;;;18.60;94.00;;;;;;4914053;29;20049;-79
2023/06/12 05:08:36;;;;;;;8.20;6.40;;;18.70;93.90;;;;;;4923551;29;20091;-79
2023/06/12 05:11:04;;;;;;;8.02;6.53;;;18.70;93.70;;;;;;4897931;29;20905;-80
2023/06/12 05:13:30;;;;;;;8.80;6.70;;;18.80;93.70;;;;;;4880532;29;20539;-80
2023/06/12 05:15:56;;;;;;;9.05;6.43;;;18.80;93.70;;;;;;4908526;29;20131;-80
2023/06/12 05:18:22;;;;;;;9.20;6.47;;;18.90;93.90;;;;;;4899936;29;20063;-80
2023/06/12 05:20:47;;;;;;;8.65;5.97;;;18.90;93.70;;;;;;4908607;29;20047;-79
2023/06/12 05:23:14;;;;;;;7.85;5.72;;;19.00;93.60;;;;;;4924078;29;20045;-79
2023/06/12 05:25:40;;;;;;;8.75;5.85;;;19.00;93.70;;;;;;4917135;29;20176;-79
2023/06/12 05:28:05;;;;;;;10.48;6.00;;;19.10;93.80;;;;;;4915629;29;20131;-79
2023/06/12 05:30:31;;;;;;;10.45;6.35;;;19.20;93.80;;;;;;4918453;29;20124;-81
2023/06/12 05:32:58;;;;;;;9.02;5.18;;;19.20;93.90;;;;;;4886265;29;20076;-80
2023/06/12 05:35:25;;;;;;;6.53;4.80;;;19.30;93.70;;;;;;4920268;29;20102;-80
2023/06/12 05:37:51;;;;;;;7.65;5.20;;;19.40;93.50;;;;;;4913956;29;20484;-81
2023/06/12 05:40:17;;;;;;;6.85;5.00;;;19.40;93.30;;;;;;4887792;29;20041;-80
2023/06/12 05:42:42;;;;;;;9.85;5.75;;;19.50;93.00;;;;;;4901812;29;20052;-80
2023/06/12 05:45:08;;;;;;;8.50;4.80;;;19.50;92.40;;;;;;4892595;29;20049;-81
2023/06/12 05:47:34;;;;;;;7.80;5.00;;;19.60;91.70;;;;;;4909135;29;20055;-80
2023/06/12 05:50:01;;;;;;;6.15;4.68;;;19.60;91.20;;;;;;4897009;29;20051;-80
2023/06/12 05:52:27;;;;;;;8.52;5.35;;;19.60;91.30;;;;;;4904617;29;20563;-80
2023/06/12 05:54:54;;;;;;;9.30;5.07;;;19.60;91.30;;;;;;4902364;29;20049;-80
2023/06/12 05:57:19;;;;;;;6.95;5.30;;;19.70;91.30;;;;;;4895754;29;20036;-81
2023/06/12 05:59:47;;;;;;;7.65;4.88;;;19.80;91.30;;;;;;4916695;29;20374;-81
2023/06/12 06:02:14;;;;;;;9.33;5.17;;;19.80;91.60;;;;;;4912669;29;20049;-80
2023/06/12 06:04:40;;;;;;;6.38;4.78;;;19.90;91.60;;;;;;4935595;29;20044;-80
2023/06/12 06:07:07;;;;;;;12.55;4.95;;;19.90;91.40;;;;;;4932937;29;20044;-80
2023/06/12 06:09:34;;;;;;;7.40;4.88;;;20.00;91.40;;;;;;4911901;29;20111;-80
2023/06/12 06:12:00;;;;;;;8.30;5.20;;;20.00;91.00;;;;;;4885572;29;20101;-80
2023/06/12 06:14:26;;;;;;;7.13;5.07;;;20.00;90.70;;;;;;4930927;29;20076;-80
2023/06/12 06:16:51;;;;;;;12.10;5.20;;;20.10;90.80;;;;;;4925500;29;20458;-81
2023/06/12 06:19:18;;;;;;;7.20;5.10;;;20.20;90.80;;;;;;4916443;29;20045;-82
2023/06/12 06:21:44;;;;;;;6.47;4.45;;;20.20;90.70;;;;;;4925855;29;20628;-81
2023/06/12 06:24:10;;;;;;;7.70;4.25;;;20.30;90.60;;;;;;4914181;29;20045;-81
2023/06/12 06:26:36;;;;;;;9.15;4.72;;;20.40;90.40;;;;;;4890621;29;20040;-81
2023/06/12 06:29:02;;;;;;;7.53;4.88;;;20.40;90.40;;;;;;4920003;29;20056;-80
2023/06/12 06:31:28;;;;;;;6.22;4.53;;;20.40;89.60;;;;;;4917232;29;20060;-80
2023/06/12 06:33:54;;;;;;;8.60;4.45;;;20.50;89.80;;;;;;4889005;29;20073;-80
2023/06/12 06:36:19;;;;;;;6.32;4.30;;;20.60;90.00;;;;;;4894718;29;20127;-80
2023/06/12 06:38:45;;;;;;;7.50;4.25;;;20.60;89.10;;;;;;4870032;29;20045;-81
2023/06/12 06:41:11;;;;;;;8.32;4.13;;;20.70;88.70;;;;;;4901089;29;20112;-80
2023/06/12 06:43:37;;;;;;;6.40;3.70;;;20.70;86.10;;;;;;4894594;29;20115;-80
2023/06/12 06:46:03;;;;;;;8.55;3.80;;;20.80;85.80;;;;;;4901267;29;20132;-80
2023/06/12 06:48:30;;;;;;;5.60;3.78;;;20.80;85.00;;;;;;4894031;29;20163;-80
2023/06/12 06:50:57;;;;;;;8.38;4.13;;;20.80;83.70;;;;;;4899677;29;20049;-81
2023/06/12 06:53:23;;;;;;;8.48;3.80;;;20.90;83.10;;;;;;4902906;29;20128;-80
2023/06/12 06:55:49;;;;;;;6.10;3.72;;;20.90;82.60;;;;;;4918631;29;20049;-80
2023/06/12 06:58:15;;;;;;;8.65;4.13;;;21.00;82.30;;;;;;4899200;29;20113;-80
2023/06/12 07:00:41;;;;;;;5.85;3.20;;;21.00;81.80;;;;;;4931571;29;20048;-80
2023/06/12 07:03:08;;;;;;;9.75;3.72;;;21.10;81.60;;;;;;4898784;29;20072;-81
2023/06/12 07:05:33;;;;;;;8.02;3.60;;;21.10;81.90;;;;;;4907436;29;20381;-80
2023/06/12 07:07:59;;;;;;;5.55;3.47;;;21.10;81.70;;;;;;4913769;29;20047;-80
2023/06/12 07:10:25;;;;;;;5.47;3.80;;;21.20;81.40;;;;;;4897600;29;20053;-81
2023/06/12 07:12:56;;;;;;;8.18;3.90;;;21.30;81.40;;;;;;4918170;29;20049;-80
2023/06/12 07:15:23;;;;;;;8.10;3.80;;;21.30;80.40;;;;;;4908900;29;20051;-81
2023/06/12 07:17:49;;;;;;;6.22;3.63;;;21.40;80.40;;;;;;4886496;29;20083;-80
2023/06/12 07:20:15;;;;;;;7.82;3.50;;;21.30;80.40;;;;;;4920699;29;20049;-80
2023/06/12 07:22:40;;;;;;;6.22;3.33;;;21.40;79.90;;;;;;4909394;29;20056;-80
2023/06/12 07:25:08;;;;;;;8.50;3.45;;;21.50;80.30;;;;;;4931084;29;20832;-81
2023/06/12 07:27:34;;;;;;;5.88;3.45;;;21.50;79.70;;;;;;4908533;29;20083;-81
2023/06/12 07:30:00;;;;;;;6.07;3.40;;;21.60;80.40;;;;;;4889280;29;20480;-80
2023/06/12 07:32:25;;;;;;;6.35;3.78;;;21.60;78.90;;;;;;4889126;29;20599;-80
2023/06/12 07:34:51;;;;;;;5.63;3.80;;;21.80;79.40;;;;;;4906093;29;20048;-80
2023/06/12 07:37:20;;;;;;;7.00;3.42;;;21.80;79.50;;;;;;4909754;29;20512;-80
2023/06/12 07:39:47;;;;;;;5.78;3.40;;;22.00;76.50;;;;;;4882573;29;20071;-80
2023/06/12 07:42:13;;;;;;;5.60;3.90;;;22.00;74.90;;;;;;4926287;29;20044;-81
2023/06/12 07:44:40;;;;;;;5.20;3.47;;;22.00;75.20;;;;;;4918952;29;20654;-80
2023/06/12 07:47:06;;;;;;;7.22;3.53;;;22.10;75.70;;;;;;4881665;29;20056;-81
2023/06/12 07:49:33;;;;;;;7.93;3.50;;;22.10;75.30;;;;;;4926137;29;20541;-81
2023/06/12 07:51:59;;;;;;;8.27;3.35;;;22.20;73.40;;;;;;4908653;29;20077;-81
2023/06/12 07:54:25;;;;;;;5.50;3.05;;;22.30;74.10;;;;;;4888533;29;20040;-80
2023/06/12 07:56:51;;;;;;;6.10;3.45;;;22.40;71.80;;;;;;4923546;29;20111;-81
2023/06/12 07:59:17;;;;;;;11.23;4.35;;;22.40;70.60;;;;;;4908752;29;20039;-81
2023/06/12 08:01:43;;;;;;;4.22;2.65;;;22.50;70.60;;;;;;4916238;29;20044;-81
2023/06/12 08:04:09;;;;;;;7.18;2.75;;;22.50;70.10;;;;;;4918119;29;20048;-80
2023/06/12 08:06:35;;;;;;;7.55;3.47;;;22.60;71.70;;;;;;4906049;29;20056;-80
2023/06/12 08:09:01;;;;;;;7.82;2.88;;;22.70;72.60;;;;;;4930479;29;20425;-80
2023/06/12 08:11:28;;;;;;;9.02;3.05;;;22.90;72.50;;;;;;4916270;29;20060;-81
2023/06/12 08:13:54;;;;;;;5.93;3.05;;;22.90;71.80;;;;;;4902214;29;20044;-80
2023/06/12 08:16:20;;;;;;;6.00;2.70;;;22.90;71.30;;;;;;4936028;29;20079;-81
2023/06/12 08:18:46;;;;;;;6.10;2.78;;;23.00;69.10;;;;;;4895802;29;20447;-80
2023/06/12 08:21:12;;;;;;;7.97;3.15;;;23.00;67.60;;;;;;4931959;29;20127;-79
2023/06/12 08:23:38;;;;;;;5.18;2.67;;;23.00;68.40;;;;;;4913563;29;20062;-80
2023/06/12 08:26:04;;;;;;;7.65;2.90;;;23.00;66.50;;;;;;4908998;29;20048;-81
2023/06/12 08:28:32;;;;;;;4.28;2.55;;;23.10;67.10;;;;;;4918560;29;20043;-80
2023/06/12 08:31:01;;;;;;;3.47;2.20;;;23.20;66.90;;;;;;4931152;29;20130;-81
2023/06/12 08:33:28;;;;;;;4.85;2.33;;;23.30;64.40;;;;;;4909561;29;20485;-81
2023/06/12 08:35:53;;;;;;;8.38;2.22;;;23.40;62.30;;;;;;4906413;29;20047;-80
2023/06/12 08:38:19;;;;;;;4.80;2.30;;;23.40;63.30;;;;;;4905107;29;20071;-81
2023/06/12 08:40:52;;;;;;;4.53;2.50;;;23.50;62.50;;;;;;4911294;29;20048;-80
2023/06/12 08:43:18;;;;;;;6.72;2.40;;;23.60;59.20;;;;;;4911515;29;20122;-80
2023/06/12 08:45:47;;;;;;;8.20;2.58;;;23.50;59.40;;;;;;4931492;29;20139;-80
2023/06/12 08:48:16;;;;;;;6.85;2.30;;;23.60;58.10;;;;;;4932118;29;20052;-83
2023/06/12 08:50:43;;;;;;;3.13;2.00;;;23.60;57.30;;;;;;4916862;29;20052;-81
2023/06/12 08:53:08;;;;;;;4.07;2.15;;;23.60;57.40;;;;;;4887319;29;20131;-81
2023/06/12 08:55:39;;;;;;;5.35;2.13;;;23.70;57.40;;;;;;4904979;29;20127;-80
2023/06/12 08:58:05;;;;;;;9.88;2.53;;;23.70;57.00;;;;;;4917925;29;20036;-80
2023/06/12 09:00:31;;;;;;;6.45;2.33;;;23.70;59.00;;;;;;4920172;29;20051;-81
2023/06/12 09:02:57;;;;;;;4.90;2.50;;;23.70;59.40;;;;;;4926310;29;20465;-81
2023/06/12 09:05:27;;;;;;;8.85;2.50;;;23.80;58.10;;;;;;4927518;29;20450;-80
2023/06/12 09:07:53;;;;;;;5.47;2.65;;;23.70;59.00;;;;;;4925842;29;20836;-81
2023/06/12 09:10:19;;;;;;;5.38;2.20;;;23.80;57.50;;;;;;4929091;29;20051;-81
2023/06/12 09:12:45;;;;;;;5.57;2.30;;;23.90;58.90;;;;;;4905606;29;20127;-81
2023/06/12 09:15:18;;;;;;;4.53;2.75;;;23.90;57.90;;;;;;4938248;29;20501;-81
2023/06/12 09:17:47;;;;;;;7.80;2.85;;;24.00;58.30;;;;;;4937563;29;20044;-81
2023/06/12 09:20:33;;;;;;;4.93;2.42;;;23.90;55.50;;;;;;4906721;29;20048;-81
2023/06/12 09:23:02;;;;;;;7.20;2.60;;;23.70;56.10;;;;;;4904927;29;20043;-80
2023/06/12 09:25:41;;;;;;;9.77;2.72;;;23.70;56.80;;;;;;4930828;29;20048;-81
2023/06/12 09:28:09;;;;;;;5.80;2.20;;;23.90;57.20;;;;;;4910880;29;20127;-81
2023/06/12 09:30:42;;;;;;;7.82;2.67;;;24.10;55.20;;;;;;4897792;29;20545;-81
2023/06/12 09:33:08;;;;;;;6.15;2.50;;;24.20;56.10;;;;;;4911016;29;20060;-81
2023/06/12 09:35:53;;;;;;;7.65;2.83;;;24.20;55.00;;;;;;4909241;29;20051;-81
2023/06/12 09:38:28;;;;;;;6.88;2.80;;;24.10;54.30;;;;;;4928527;29;20058;-83
2023/06/12 09:40:57;;;;;;;4.07;2.78;;;24.00;54.20;;;;;;4909356;29;20046;-83
2023/06/12 09:43:26;;;;;;;7.60;3.08;;;24.00;57.00;;;;;;4946201;29;20103;-83
2023/06/12 09:45:52;;;;;;;7.03;2.63;;;24.20;56.50;;;;;;4927880;29;20116;-83
2023/06/12 09:48:20;;;;;;;6.93;2.40;;;24.20;56.40;;;;;;4896368;29;20470;-82
2023/06/12 09:50:46;;;;;;;4.43;2.83;;;24.10;55.70;;;;;;4912586;29;20048;-83
2023/06/12 09:53:14;;;;;;;7.07;3.40;;;24.30;57.00;;;;;;4937432;29;20063;-83
2023/06/12 09:55:44;;;;;;;;;;;24.30;57.70;;;;;;4916816;29;20048;-83
2023/06/12 09:58:15;;;;;;;5.07;2.67;;;24.50;57.50;;;;;;4891549;29;19911;-83
2023/06/12 10:00:49;;;;;;;5.40;2.28;;;24.60;55.90;;;;;;4916655;29;20040;-83
2023/06/12 10:03:17;;;;;;;5.63;2.70;;;24.60;54.90;;;;;;4907597;29;20051;-83
2023/06/12 10:05:48;;;;;;;5.47;2.60;;;24.70;53.40;;;;;;4889529;29;20044;-82
2023/06/12 10:08:16;;;;;;;6.90;2.30;;;24.80;54.50;;;;;;4902786;29;20343;-83
2023/06/12 10:10:45;;;;;;;6.45;3.00;;;24.80;54.60;;;;;;4927528;29;20158;-82
2023/06/12 10:13:11;;;;;;;7.82;2.78;;;25.00;51.90;;;;;;4891916;29;20052;-83
2023/06/12 10:15:39;;;;;;;6.07;2.72;;;25.00;53.80;;;;;;4912518;29;20048;-83
2023/06/12 10:18:12;;;;;;;5.07;2.75;;;25.10;54.30;;;;;;4927728;29;20100;-83
2023/06/12 10:20:39;;;;;;;5.70;2.50;;;25.10;60.80;;;;;;4907982;29;20385;-83
2023/06/12 10:23:05;;;;;;;8.80;2.50;;;25.00;59.70;;;;;;4921487;29;20766;-83
2023/06/12 10:25:33;;;;;;;7.95;3.00;;;25.00;59.10;;;;;;4878178;29;20044;-83
2023/06/12 10:28:01;;;;;;;;;;;24.90;57.60;;;;;;4896891;29;20056;-82
2023/06/12 10:30:27;;;;;;;;;;;25.00;53.80;;;;;;4933329;29;20010;-82
2023/06/12 10:32:54;;;;;;;5.35;2.72;;;25.30;50.60;;;;;;4933754;29;19998;-83
2023/06/12 10:35:40;;;;;;;8.55;2.63;;;25.20;53.80;;;;;;4905530;29;20048;-83
2023/06/12 10:38:10;;;;;;;5.28;2.35;;;25.40;51.80;;;;;;4896227;29;20064;-83
2023/06/12 10:40:38;;;;;;;7.88;2.85;;;25.50;50.70;;;;;;4900626;29;20538;-82
2023/06/12 10:43:04;;;;;;;9.02;2.47;;;25.50;52.00;;;;;;4920085;29;20049;-83
2023/06/12 10:45:36;;;;;;;11.82;2.90;;;25.60;50.50;;;;;;4893087;29;20071;-83
2023/06/12 10:48:22;;;;;;;;;;;;;;;;;;;;;
2023/06/12 10:51:10;;;;;;;5.47;2.78;;;25.90;48.70;;;;;;4888936;29;20072;-83
2023/06/12 10:53:38;;;;;;;6.50;2.67;;;25.80;47.90;;;;;;4901560;29;20063;-83
2023/06/12 10:56:11;;;;;;;7.80;3.30;;;25.70;48.20;;;;;;4912327;29;20136;-83
2023/06/12 10:58:43;;;;;;;6.60;2.30;;;25.90;46.30;;;;;;4935967;29;20517;-81
2023/06/12 11:01:10;;;;;;;6.93;2.35;;;25.90;46.20;;;;;;4901789;29;20063;-82
2023/06/12 11:03:42;;;;;;;5.32;2.60;;;25.90;46.40;;;;;;4902654;29;20044;-83
2023/06/12 11:06:13;;;;;;;5.00;2.42;;;25.80;44.00;;;;;;4900013;29;20048;-83
2023/06/12 11:08:42;;;;;;;7.75;2.38;;;25.70;46.40;;;;;;4877557;29;20059;-83
2023/06/12 11:11:19;;;;;;;5.93;2.38;;;25.90;44.90;;;;;;4876501;29;20068;-82
2023/06/12 11:13:47;;;;;;;6.13;2.17;;;26.00;45.30;;;;;;4928180;29;20041;-83
2023/06/12 11:16:41;;;;;;;;;;;;;;;;;;;;;
2023/06/12 11:19:07;;;;;;;6.00;2.75;;;26.10;47.00;;;;;;4938686;29;20671;-82
2023/06/12 11:21:37;;;;;;;8.02;2.80;;;26.20;47.20;;;;;;4908121;29;20132;-83
2023/06/12 11:24:13;;;;;;;6.25;2.75;;;26.10;46.10;;;;;;4896632;29;20051;-83
2023/06/12 11:26:41;;;;;;;5.65;2.50;;;26.40;48.70;;;;;;4880518;29;20347;-83
2023/06/12 11:29:17;;;;;;;6.53;2.95;;;26.50;47.90;;;;;;4894440;29;20048;-83
2023/06/12 11:31:50;;;;;;;7.35;2.78;;;26.60;47.90;;;;;;4924603;29;20049;-83
2023/06/12 11:34:16;;;;;;;3.58;2.80;;;26.70;48.40;;;;;;4912040;29;20348;-82
2023/06/12 11:36:42;;;;;;;6.47;2.97;;;26.70;47.80;;;;;;4879684;29;20430;-82
2023/06/12 11:39:22;;;;;;;9.25;3.40;;;26.80;48.60;;;;;;4878146;29;20415;-83
2023/06/12 11:41:57;;;;;;;6.95;3.45;;;26.50;48.00;;;;;;4877665;29;20131;-83
2023/06/12 11:44:23;;;;;;;4.60;2.90;;;26.60;50.30;;;;;;4903022;29;20624;-83
2023/06/12 11:46:49;;;;;;;5.00;3.40;;;26.80;51.40;;;;;;4911166;29;20088;-83
2023/06/12 11:49:17;;;;;;;7.60;3.30;;;26.70;49.90;;;;;;4938192;29;20060;-83
2023/06/12 11:51:45;;;;;;;8.05;3.17;;;26.50;49.60;;;;;;4923999;29;20045;-83
2023/06/12 11:54:11;;;;;;;7.37;2.83;;;26.60;49.80;;;;;;4876261;29;20040;-85
2023/06/12 11:56:43;;;;;;;6.60;3.10;;;26.70;49.50;;;;;;4914212;29;20525;-83
2023/06/12 11:59:09;;;;;;;10.35;3.58;;;26.60;50.30;;;;;;4928357;29;20842;-82
2023/06/12 12:01:41;;;;;;;8.40;3.30;;;26.70;50.90;;;;;;4929513;29;20041;-82
2023/06/12 12:04:07;;;;;;;6.07;2.90;;;26.90;51.00;;;;;;4927039;29;20104;-82
2023/06/12 12:06:51;;;;;;;6.38;3.47;;;26.90;50.40;;;;;;4931647;29;20045;-82
2023/06/12 12:09:27;;;;;;;4.90;3.15;;;26.90;48.70;;;;;;4925133;29;20055;-82
2023/06/12 12:11:53;;;;;;;5.65;3.13;;;26.90;50.90;;;;;;4907819;29;20471;-82
2023/06/12 12:14:19;;;;;;;6.65;3.10;;;27.10;50.50;;;;;;4912801;29;20135;-82
2023/06/12 12:16:47;;;;;;;4.93;3.20;;;27.10;53.30;;;;;;4912494;29;20538;-82
2023/06/12 12:19:27;;;;;;;7.75;3.20;;;27.10;53.50;;;;;;4898477;29;20129;-83
2023/06/12 12:21:55;;;;;;;7.18;3.25;;;27.10;53.70;;;;;;4882647;29;20120;-82
2023/06/12 12:24:21;;;;;;;8.57;3.00;;;27.10;50.60;;;;;;4910044;29;20040;-82
2023/06/12 12:26:51;;;;;;;4.40;3.10;;;27.10;50.90;;;;;;4916070;29;20107;-82
2023/06/12 12:29:18;;;;;;;5.25;2.60;;;27.30;50.40;;;;;;4901250;29;20048;-83
2023/06/12 12:31:43;;;;;;;6.18;2.92;;;27.30;48.70;;;;;;4932391;29;20055;-82
2023/06/12 12:34:12;;;;;;;6.97;3.25;;;27.40;48.40;;;;;;4910785;29;20124;-83
2023/06/12 12:36:41;;;;;;;6.75;3.05;;;27.30;48.60;;;;;;4940251;29;20414;-83
2023/06/12 12:39:07;;;;;;;6.53;3.20;;;26.90;46.70;;;;;;4913165;29;20036;-81
2023/06/12 12:41:35;;;;;;;4.03;2.80;;;26.60;46.10;;;;;;4916581;29;20059;-82
2023/06/12 12:44:03;;;;;;;8.57;3.47;;;26.60;47.40;;;;;;4904311;29;20092;-82
2023/06/12 12:46:29;;;;;;;5.43;3.00;;;26.80;48.70;;;;;;4899120;29;20082;-83
2023/06/12 12:48:58;;;;;;;11.55;3.13;;;27.10;49.70;;;;;;4923994;29;20429;-82
2023/06/12 12:51:23;;;;;;;5.93;3.42;;;27.20;47.70;;;;;;4904276;29;20181;-82